Terminal Aerodrome Forecast
Issued by NWS

Home | Current Version | Previous Version | Text Only | Print | Product List | Glossary On
Versions: 1 2 3 4 5 6 7 8 9 10 11 12
000
FTUS42 TJSJ 300559
TAFJBQ
TAF
TJBQ 300559Z 3006/3106 VRB03KT P6SM FEW030 BKN120
     FM301500 06008KT P6SM VCSH SCT022 BKN040 BKN090
     FM302300 VRB05KT P6SM SCT025 BKN070
      AMD NOT SKED TIL 301100=

USA.gov is the U.S. government's official web portal to all federal, state and local government web resources and services.